San Luis Valley Regional Bergman Field
KALS : now visible

Airfield :











YOU CAN JOIN US ON...

 
LOGIN :

Register | Disclaimer

   EN    FR    IT 

 









Legend :    VFR   Marginal VFR   IFR   Intensive IFR   Very Intensive IFR
Visi :
Ceiling :
>= 8 km
>= 3000ft
5 to 8 km
1000 to 3000 ft
1500m to 5 km
500 to 1000 ft
800 to 1500m
200 to 500 ft
< 800m
< 200 ft
Symbols :   Thunderstorms  Fog  Heavy snow  Heavy precipitations  Wind > 20 kt






- Airport Elevation : 7539 ft


KALS - San Luis Valley Regional Bergman Field

CURRENT METAR :
  • 080152Z AUTO 23007KT 10SM CLR 24/M01 A3014 RMK AO2 SLP091 T02441006

EXPIRED METARs :
  • 080052Z AUTO 24017KT 10SM CLR 28/M05 A3014 RMK AO2 PK WND 24026/0000 SLP088 T02831050
  • 072352Z AUTO 26014G25KT 10SM CLR 29/M05 A3014 RMK AO2 SLP090 60009 T02941050 10306 20211 56015

TAF KALS
Valid from the 08 at 00:00 until the 09 at 00:00 UTC


072321Z 0800/0824 26013KT P6SM SCT100
FM080200 25008KT P6SM SKC
FM080500 17005KT P6SM SKC
FM081800 24012KT P6SM SKC
FM082000 27015G25KT P6SM FEW250
KZDV FIR / North America



MET'MAP, your aeronautical weather chart ! - Copyright ORBIFLY December 2007 - Disclaimer

ORBIFLY MET'MAP TEAM :

Programming & Development : Alexandra Zaïnal
Concept & original design : Baudouin d'Aumeries
Assistance for programming : Marc-Olivier Méhu
Technical & hardware support : Manuel Goepfert

Contact : metmap@orbifly.com




SOURCES & CREDITS :

   NOAA       Earth
Advisory